Terminal Aerodrome Forecast
Issued by NWS

Home | Current Version | Previous Version | Text Only | Print | Product List | Glossary On
Versions: 1 2 3 4 5 6 7 8 9 10 11 12 13 14
000
FTUS44 KLZK 061700
TAFBPK
TAF
KBPK 061725Z 0618/0718 18010G16KT P6SM VCSH BKN050
     FM070100 17007KT P6SM BKN050
      TEMPO 0711/0714 BKN025
     FM071400 19010G16KT P6SM VCTS BKN035CB=

USA.gov is the U.S. government's official web portal to all federal, state and local government web resources and services.